Flight Track Log - Related Links

Times and Time Zones

All times are in EDT time to prevent confusion due to time zone crossing. See the DAL1297 flight status page for this flight to view local times or setup timezone preferences in your user account.


Time Position Orientation Groundspeed Altitude Reporting Facility
EDT Latitude Longitude Course Direction KTS MPH feet Rate Location/Type
Thu 02:48:29 PM 33.6333 -84.4833 199° South 187 215 2,800  Level Atlanta TRACON
Thu 02:49:29 PM 33.6333 -84.5667 270° West 252 290 5,300 3,050 Climbing Atlanta TRACON
Thu 02:50:29 PM 33.6333 -84.6500 270° West 257 296 8,900 2,400 Climbing Atlanta TRACON
Thu 02:51:00 PM 33.2535 -84.3241 194° South  Level FlightAware Approximate
Thu 02:51:29 PM 33.5667 -84.7000 212° Southwest 334 384 10,100  Level Atlanta TRACON
Thu 02:52:00 PM 33.1354 -84.3585 194° South  Level FlightAware Approximate
Thu 02:53:00 PM 33.0172 -84.3898 199° South  Level FlightAware Approximate
Thu 02:53:44 PM 33.3253 -84.6406 168° South 413 475 14,400  Level Atlanta Center
Thu 02:54:44 PM 33.2211 -84.5753 152° Southeast 413 475 16,800 2,250 Climbing Atlanta Center
Thu 02:55:44 PM 33.1128 -84.5125 154° Southeast 426 490 18,900 2,000 Climbing Atlanta Center
Thu 02:56:44 PM 33.0025 -84.4450 153° Southeast 433 498 20,800 1,900 Climbing Atlanta Center
Thu 02:57:44 PM 32.8794 -84.4172 169° South 444 511 22,700 1,850 Climbing Atlanta Center
Thu 02:58:44 PM 32.7394 -84.4167 180° South 449 517 24,500 1,600 Climbing Atlanta Center
Thu 02:59:44 PM 32.6081 -84.4161 180° South 459 528 25,900 1,700 Climbing Atlanta Center
Thu 03:00:44 PM 32.4767 -84.4156 180° South 464 534 27,900 1,800 Climbing Atlanta Center
Thu 03:01:44 PM 32.3472 -84.4125 179° South 464 534 29,500 1,650 Climbing Atlanta Center
Thu 03:02:44 PM 32.2197 -84.4094 179° South 464 534 31,200 1,550 Climbing Atlanta Center
Thu 03:03:44 PM 32.0947 -84.4042 178° South 458 527 32,600 900 Climbing Atlanta Center
Thu 03:04:44 PM 31.9714 -84.4036 180° South 453 521 33,000 179 Climbing Atlanta Center
Thu 03:05:58 PM 31.8339 -84.3989 178° South 451 519 33,000  Level Jacksonville Center
Thu 03:06:58 PM 31.7067 -84.3992 180° South 451 519 33,000  Level Jacksonville Center
Thu 03:07:58 PM 31.5833 -84.3972 179° South 451 519 33,000  Level Jacksonville Center
Thu 03:08:58 PM 31.4606 -84.3733 171° South 451 519 33,000  Level Jacksonville Center
Thu 03:09:58 PM 31.3378 -84.3350 165° South 456 525 33,000  Level Jacksonville Center
Thu 03:10:58 PM 31.2150 -84.2992 166° South 456 525 33,000  Level Jacksonville Center
Thu 03:11:58 PM 31.0900 -84.2633 166° South 456 525 33,000  Level Jacksonville Center
Thu 03:12:58 PM 30.9694 -84.2275 166° South 456 525 33,000  Level Jacksonville Center
Thu 03:13:58 PM 30.8486 -84.1919 166° South 451 519 33,000  Level Jacksonville Center
Thu 03:14:58 PM 30.7258 -84.1564 166° South 451 519 33,000  Level Jacksonville Center
Thu 03:15:58 PM 30.6031 -84.1186 165° South 451 519 33,000  Level Jacksonville Center
Thu 03:16:58 PM 30.4822 -84.0833 166° South 451 519 33,000  Level Jacksonville Center
Thu 03:17:58 PM 30.3617 -84.0314 160° South 451 519 33,000  Level Jacksonville Center
Thu 03:18:58 PM 30.2431 -83.9747 158° South 461 531 33,000  Level Jacksonville Center
Thu 03:19:58 PM 30.1267 -83.9206 158° South 461 531 33,000 -50 Level Jacksonville Center
Thu 03:20:58 PM 30.0081 -83.8639 158° South 461 531 32,900  Descending Jacksonville Center
Thu 03:21:58 PM 29.8894 -83.8103 159° South 461 531 33,000 50 Climbing Jacksonville Center
Thu 03:22:58 PM 29.7708 -83.7517 157° South 466 536 33,000  Level Jacksonville Center
Thu 03:23:58 PM 29.6503 -83.6981 159° South 466 536 33,000  Level Jacksonville Center
Thu 03:24:58 PM 29.5294 -83.6419 158° South 466 536 33,000 -50 Level Jacksonville Center
Thu 03:25:58 PM 29.4108 -83.5864 158° South 466 536 32,900  Descending Jacksonville Center
Thu 03:26:58 PM 29.2900 -83.5308 158° South 466 536 33,000 -750 Climbing Jacksonville Center
Thu 03:27:58 PM 29.1692 -83.4753 158° South 466 536 31,400 -2,300 Descending Jacksonville Center
Thu 03:28:58 PM 29.0483 -83.4175 157° South 466 536 28,400 -2,800 Descending Jacksonville Center
Thu 03:29:58 PM 28.9253 -83.3647 159° South 466 536 25,800 -2,350 Descending Jacksonville Center
Thu 03:30:58 PM 28.8086 -83.3144 159° South 466 536 23,700 -2,300 Descending Jacksonville Center
Thu 03:31:58 PM 28.6983 -83.2714 161° South 446 513 21,200 -2,457 Descending Jacksonville Center
Thu 03:34:28 PM 28.4167 -83.1500 159° South 402 463 15,100 -2,389 Descending Tampa TRACON
Thu 03:35:29 PM 28.3167 -83.1167 164° South 391 450 12,800 -2,035 Descending Tampa TRACON
Thu 03:36:23 PM 28.2167 -83.0833 164° South 379 436 11,200 -1,368 Descending Tampa TRACON
Thu 03:37:23 PM 28.1333 -83.0333 152° Southeast 357 411 10,200 -1,000 Descending Tampa TRACON
Thu 03:38:35 PM 28.0333 -83.0167 172° South 302 348 9,000 -1,273 Descending Tampa TRACON
Thu 03:39:35 PM 27.9500 -83.0167 180° South 294 338 7,400 -1,450 Descending Tampa TRACON
Thu 03:40:35 PM 27.8667 -83.0167 180° South 284 327 6,100 -737 Descending Tampa TRACON
Thu 03:41:29 PM 27.8000 -83.0167 180° South 282 325 6,000 -50 Descending Tampa TRACON
Thu 03:42:35 PM 27.7333 -82.9333 132° Southeast 287 330 6,000  Level Tampa TRACON
Thu 03:43:29 PM 27.6833 -82.8833 138° Southeast 285 328 6,000  Level Tampa TRACON
Thu 03:44:29 PM 27.6500 -82.8000 114° Southeast 287 330 6,000 -300 Level Tampa TRACON
Thu 03:45:29 PM 27.6000 -82.7333 130° Southeast 285 328 5,400 -950 Descending Tampa TRACON
Thu 03:46:29 PM 27.5500 -82.6500 124° Southeast 276 318 4,100 -700 Descending Tampa TRACON
Thu 03:47:29 PM 27.5167 -82.5833 119° Southeast 270 311 4,000 -105 Descending Tampa TRACON
Thu 03:48:23 PM 27.4833 -82.5167 119° Southeast 236 272 3,900 -678 Descending Tampa TRACON
Thu 03:49:24 PM 27.4333 -82.4667 138° Southeast 217 250 2,700 -857 Descending Tampa TRACON
Thu 03:50:29 PM 27.3833 -82.4333 149° Southeast 204 235 2,100 -554 Descending Tampa TRACON

Login

Don't have an account? Register now (free) for customized features, flight alerts, and more!